createdAt,value
2017-11-28T00:00:12.483Z,20.00
2017-11-28T00:01:17.093Z,19.90
2017-11-28T00:02:22.029Z,19.90
2017-11-28T00:03:26.688Z,19.90
2017-11-28T00:04:31.469Z,20.00
2017-11-28T00:05:36.148Z,19.90
2017-11-28T00:06:41.102Z,19.90
2017-11-28T00:07:46.084Z,20.00
2017-11-28T00:08:50.936Z,19.90
2017-11-28T00:09:55.882Z,20.00
2017-11-28T00:11:00.806Z,20.00
2017-11-28T00:12:05.554Z,19.90
2017-11-28T00:13:10.399Z,19.90
2017-11-28T00:14:15.327Z,19.90
2017-11-28T00:15:20.165Z,19.90
2017-11-28T00:16:29.970Z,19.90
2017-11-28T00:17:34.751Z,19.90
2017-11-28T00:18:39.542Z,19.90
2017-11-28T00:19:44.198Z,19.90
2017-11-28T00:20:48.984Z,19.90
2017-11-28T00:21:53.853Z,19.90
2017-11-28T00:22:58.609Z,19.90
2017-11-28T00:24:03.595Z,19.90
2017-11-28T00:25:08.539Z,20.00
2017-11-28T00:26:13.502Z,20.00
2017-11-28T00:27:18.388Z,19.90
2017-11-28T00:28:23.288Z,20.00
2017-11-28T00:29:27.842Z,19.90
2017-11-28T00:30:32.553Z,20.00
2017-11-28T00:31:37.207Z,19.90
2017-11-28T00:32:42.079Z,19.90
2017-11-28T00:33:46.979Z,20.00
2017-11-28T00:34:51.606Z,19.90
2017-11-28T00:35:56.505Z,19.90
2017-11-28T00:37:01.145Z,19.90
2017-11-28T00:38:05.738Z,19.90
2017-11-28T00:39:10.658Z,19.90
2017-11-28T00:40:15.472Z,20.00
2017-11-28T00:41:20.373Z,19.90
2017-11-28T00:42:25.124Z,19.90
2017-11-28T00:43:29.769Z,19.90
2017-11-28T00:44:34.333Z,19.90
2017-11-28T00:45:39.109Z,19.90
2017-11-28T00:46:43.870Z,19.90
2017-11-28T00:47:48.613Z,19.90
2017-11-28T00:48:53.441Z,19.90
2017-11-28T00:49:58.305Z,19.90
2017-11-28T00:51:02.997Z,19.90
2017-11-28T00:52:07.759Z,19.90
2017-11-28T00:53:12.438Z,19.90
2017-11-28T00:54:17.371Z,19.90
2017-11-28T00:55:22.267Z,19.90
2017-11-28T00:56:27.038Z,19.90
2017-11-28T00:57:31.839Z,19.90
2017-11-28T00:58:36.453Z,19.90
2017-11-28T00:59:41.305Z,19.90
2017-11-28T01:00:46.013Z,19.90
2017-11-28T01:01:50.606Z,19.90
2017-11-28T01:02:55.357Z,19.90
2017-11-28T01:03:59.930Z,19.90
2017-11-28T01:05:04.620Z,19.90
2017-11-28T01:06:09.928Z,19.90
2017-11-28T01:07:14.866Z,19.90
2017-11-28T01:08:19.574Z,19.90
2017-11-28T01:09:24.169Z,19.90
2017-11-28T01:10:28.741Z,19.90
2017-11-28T01:11:33.483Z,19.90
2017-11-28T01:12:38.329Z,19.90
2017-11-28T01:13:43.272Z,19.90
2017-11-28T01:14:48.434Z,19.90
2017-11-28T01:15:53.284Z,19.90
2017-11-28T01:16:57.984Z,19.90
2017-11-28T01:18:02.762Z,19.90
2017-11-28T01:19:07.477Z,19.90
2017-11-28T01:20:12.200Z,19.90
2017-11-28T01:21:17.117Z,19.90
2017-11-28T01:22:21.732Z,19.90
2017-11-28T01:23:26.558Z,19.90
2017-11-28T01:24:31.330Z,19.90
2017-11-28T01:25:36.088Z,19.90
2017-11-28T01:26:40.960Z,19.90
2017-11-28T01:27:45.674Z,19.90
2017-11-28T01:28:50.474Z,19.90
2017-11-28T01:29:55.317Z,19.90
2017-11-28T01:30:59.945Z,19.90
2017-11-28T01:32:04.583Z,19.90
2017-11-28T01:33:09.177Z,19.90
2017-11-28T01:34:13.886Z,19.90
2017-11-28T01:35:18.602Z,19.90
2017-11-28T01:36:23.209Z,19.90
2017-11-28T01:37:27.950Z,19.90
2017-11-28T01:38:32.537Z,19.90
2017-11-28T01:39:37.231Z,19.90
2017-11-28T01:40:41.948Z,19.90
2017-11-28T01:41:46.629Z,19.90
2017-11-28T01:42:51.779Z,19.90
2017-11-28T01:43:58.258Z,19.90
2017-11-28T01:45:02.855Z,19.90
2017-11-28T01:46:07.631Z,19.90
2017-11-28T01:47:12.324Z,19.90
2017-11-28T01:48:17.014Z,19.90
2017-11-28T01:49:21.732Z,19.90
2017-11-28T01:50:26.599Z,19.90
2017-11-28T01:51:31.331Z,19.90
2017-11-28T01:52:36.179Z,19.90
2017-11-28T01:53:40.922Z,19.90
2017-11-28T01:54:45.697Z,19.90
2017-11-28T01:55:50.612Z,19.90
2017-11-28T01:56:55.397Z,19.90
2017-11-28T01:58:00.177Z,19.90
2017-11-28T01:59:05.063Z,19.90
2017-11-28T02:00:09.893Z,19.90
2017-11-28T02:01:14.690Z,19.90
2017-11-28T02:02:19.312Z,19.90
2017-11-28T02:03:24.053Z,19.90
2017-11-28T02:04:28.816Z,19.90
2017-11-28T02:05:33.505Z,19.90
2017-11-28T02:06:38.090Z,19.90
2017-11-28T02:07:42.702Z,19.90
2017-11-28T02:08:47.340Z,19.90
2017-11-28T02:09:52.113Z,19.90
2017-11-28T02:10:56.954Z,19.90
2017-11-28T02:12:01.825Z,19.90
2017-11-28T02:13:07.485Z,19.90
2017-11-28T02:14:12.244Z,19.90
2017-11-28T02:15:16.889Z,19.90
2017-11-28T02:16:21.470Z,19.90
2017-11-28T02:17:26.072Z,19.90
2017-11-28T02:18:30.817Z,19.90
2017-11-28T02:19:35.533Z,19.90
2017-11-28T02:20:40.362Z,19.90
2017-11-28T02:21:45.129Z,19.90
2017-11-28T02:22:49.847Z,19.90
2017-11-28T02:23:55.696Z,19.90
2017-11-28T02:25:00.385Z,19.90
2017-11-28T02:26:05.176Z,19.90
2017-11-28T02:27:10.254Z,19.90
2017-11-28T02:28:15.584Z,19.90
2017-11-28T02:29:20.374Z,19.90
2017-11-28T02:30:25.246Z,19.90
2017-11-28T02:31:29.960Z,19.90
2017-11-28T02:32:34.714Z,19.90
2017-11-28T02:33:39.423Z,19.90
2017-11-28T02:34:44.175Z,19.90
2017-11-28T02:35:48.773Z,19.90
2017-11-28T02:36:53.509Z,19.90
2017-11-28T02:37:58.252Z,19.90
2017-11-28T02:39:02.977Z,19.90
2017-11-28T02:40:07.588Z,19.90
2017-11-28T02:41:12.524Z,19.90
2017-11-28T02:42:17.102Z,19.90
2017-11-28T02:43:21.917Z,19.90
2017-11-28T02:44:26.653Z,19.90
2017-11-28T02:45:31.343Z,19.90
2017-11-28T02:46:36.092Z,19.90
2017-11-28T02:47:40.795Z,19.90
2017-11-28T02:48:45.388Z,19.90
2017-11-28T02:49:50.145Z,19.90
2017-11-28T02:50:54.797Z,19.90
2017-11-28T02:51:59.544Z,19.90
2017-11-28T02:53:04.146Z,19.90
2017-11-28T02:54:08.891Z,19.90
2017-11-28T02:55:13.640Z,19.90
2017-11-28T02:56:18.325Z,19.90
2017-11-28T02:57:23.217Z,19.90
2017-11-28T02:58:27.951Z,19.90
2017-11-28T02:59:32.694Z,19.90
2017-11-28T03:00:37.287Z,19.90
2017-11-28T03:01:41.889Z,19.90
2017-11-28T03:02:46.476Z,19.90
2017-11-28T03:03:51.351Z,19.90
2017-11-28T03:04:55.986Z,19.90
2017-11-28T03:06:00.760Z,19.90
2017-11-28T03:07:05.532Z,19.90
2017-11-28T03:08:10.307Z,19.90
2017-11-28T03:09:15.040Z,19.90
2017-11-28T03:10:19.932Z,19.90
2017-11-28T03:11:24.797Z,19.90
2017-11-28T03:12:29.498Z,19.90
2017-11-28T03:13:34.333Z,19.90
2017-11-28T03:14:38.904Z,19.90
2017-11-28T03:15:43.462Z,19.90
2017-11-28T03:16:48.142Z,19.90
2017-11-28T03:17:52.851Z,19.80
2017-11-28T03:18:57.589Z,19.80
2017-11-28T03:20:02.464Z,19.80
2017-11-28T03:21:07.193Z,19.80
2017-11-28T03:22:12.069Z,19.80
2017-11-28T03:23:16.858Z,19.80
2017-11-28T03:24:21.639Z,19.80
2017-11-28T03:25:26.556Z,19.80
2017-11-28T03:26:31.707Z,19.80
2017-11-28T03:27:36.468Z,19.80
2017-11-28T03:28:41.103Z,19.80
2017-11-28T03:29:45.808Z,19.80
2017-11-28T03:30:50.673Z,19.80
2017-11-28T03:31:55.316Z,19.80
2017-11-28T03:33:00.217Z,19.80
2017-11-28T03:34:04.969Z,19.80
2017-11-28T03:35:09.563Z,19.80
2017-11-28T03:36:14.289Z,19.80
2017-11-28T03:37:18.827Z,19.80
2017-11-28T03:38:23.684Z,19.80
2017-11-28T03:39:28.548Z,19.80
2017-11-28T03:40:33.422Z,19.80
2017-11-28T03:41:38.167Z,19.80
2017-11-28T03:42:42.824Z,19.80
2017-11-28T03:43:47.525Z,19.80
2017-11-28T03:44:52.308Z,19.80
2017-11-28T03:45:57.204Z,19.80
2017-11-28T03:47:01.931Z,19.80
2017-11-28T03:48:06.812Z,19.80
2017-11-28T03:49:11.591Z,19.80
2017-11-28T03:50:16.344Z,19.80
2017-11-28T03:51:20.935Z,19.80
2017-11-28T03:52:25.740Z,19.80
2017-11-28T03:53:30.543Z,19.80
2017-11-28T03:54:35.979Z,19.80
2017-11-28T03:55:40.667Z,19.80
2017-11-28T03:56:45.269Z,19.80
2017-11-28T03:57:49.994Z,19.80
2017-11-28T03:58:54.747Z,19.80
2017-11-28T03:59:59.698Z,19.80
2017-11-28T04:01:04.974Z,19.80
2017-11-28T04:02:10.670Z,19.80
2017-11-28T04:03:15.609Z,19.80
2017-11-28T04:04:20.251Z,19.80
2017-11-28T04:05:24.901Z,19.80
2017-11-28T04:06:29.619Z,19.80
2017-11-28T04:07:34.220Z,19.80
2017-11-28T04:08:38.785Z,19.80
2017-11-28T04:09:43.410Z,19.80
2017-11-28T04:10:48.201Z,19.80
2017-11-28T04:11:52.951Z,19.80
2017-11-28T04:12:57.615Z,19.80
2017-11-28T04:14:02.433Z,19.80
2017-11-28T04:15:07.219Z,19.80
2017-11-28T04:16:11.992Z,19.80
2017-11-28T04:17:16.579Z,19.80
2017-11-28T04:18:21.315Z,19.80
2017-11-28T04:19:26.212Z,19.80
2017-11-28T04:20:30.841Z,19.80
2017-11-28T04:21:35.656Z,19.80
2017-11-28T04:22:40.533Z,19.80
2017-11-28T04:23:45.481Z,19.80
2017-11-28T04:24:50.308Z,19.80
2017-11-28T04:25:55.016Z,19.80
2017-11-28T04:26:59.941Z,19.80
2017-11-28T04:28:04.870Z,19.80
2017-11-28T04:29:09.795Z,19.80
2017-11-28T04:30:14.736Z,19.80
2017-11-28T04:31:19.519Z,19.80
2017-11-28T04:32:24.399Z,19.80
2017-11-28T04:33:29.056Z,19.80
2017-11-28T04:34:34.064Z,19.80
2017-11-28T04:35:38.830Z,19.80
2017-11-28T04:36:43.563Z,19.80
2017-11-28T04:37:48.512Z,19.80
2017-11-28T04:38:53.257Z,19.80
2017-11-28T04:39:58.210Z,19.80
2017-11-28T04:41:03.850Z,19.80
2017-11-28T04:42:08.557Z,19.80
2017-11-28T04:43:13.486Z,19.80
2017-11-28T04:44:18.250Z,19.80
2017-11-28T04:45:23.227Z,19.80
2017-11-28T04:46:28.256Z,19.80
2017-11-28T04:47:33.045Z,19.80
2017-11-28T04:48:37.832Z,19.80
2017-11-28T04:49:42.756Z,19.80
2017-11-28T04:50:47.533Z,19.80
2017-11-28T04:51:52.135Z,19.80
2017-11-28T04:52:56.750Z,19.80
2017-11-28T04:54:01.732Z,19.80
2017-11-28T04:55:06.618Z,19.80
2017-11-28T04:56:12.824Z,19.80
2017-11-28T04:57:17.727Z,19.80
2017-11-28T04:58:22.620Z,19.80
2017-11-28T04:59:27.409Z,19.80
2017-11-28T05:00:32.094Z,19.80
2017-11-28T05:01:37.067Z,19.80
2017-11-28T05:02:41.758Z,19.80
2017-11-28T05:03:46.743Z,19.80
2017-11-28T05:04:51.747Z,19.80
2017-11-28T05:05:56.729Z,19.80
2017-11-28T05:07:01.709Z,19.80
2017-11-28T05:08:06.671Z,19.80
2017-11-28T05:09:11.454Z,19.80
2017-11-28T05:10:16.305Z,19.80
2017-11-28T05:11:21.280Z,19.80
2017-11-28T05:12:26.089Z,19.80
2017-11-28T05:13:30.934Z,19.80
2017-11-28T05:14:35.760Z,19.70
2017-11-28T05:15:40.575Z,19.80
2017-11-28T05:16:45.375Z,19.80
2017-11-28T05:17:50.172Z,19.80
2017-11-28T05:18:55.027Z,19.80
2017-11-28T05:19:59.821Z,19.80
2017-11-28T05:21:04.522Z,19.80
2017-11-28T05:22:09.326Z,19.80
2017-11-28T05:23:14.278Z,19.80
2017-11-28T05:24:19.237Z,19.80
2017-11-28T05:25:23.961Z,19.80
2017-11-28T05:26:28.648Z,19.80
2017-11-28T05:27:33.303Z,19.80
2017-11-28T05:28:38.236Z,19.80
2017-11-28T05:29:43.216Z,19.80
2017-11-28T05:30:48.224Z,19.80
2017-11-28T05:31:53.045Z,19.80
2017-11-28T05:32:57.948Z,19.80
2017-11-28T05:34:03.052Z,19.80
2017-11-28T05:35:07.855Z,19.80
2017-11-28T05:36:13.752Z,19.80
2017-11-28T05:37:18.664Z,19.80
2017-11-28T05:38:23.575Z,19.80
2017-11-28T05:39:28.497Z,19.80
2017-11-28T05:40:33.224Z,19.80
2017-11-28T05:41:38.177Z,19.80
2017-11-28T05:42:43.150Z,19.80
2017-11-28T05:43:48.858Z,19.80
2017-11-28T05:44:53.687Z,19.80
2017-11-28T05:45:58.481Z,19.80
2017-11-28T05:47:03.294Z,19.80
2017-11-28T05:48:08.215Z,19.80
2017-11-28T05:49:13.053Z,19.80
2017-11-28T05:50:17.986Z,19.80
2017-11-28T05:51:23.902Z,19.80
2017-11-28T05:52:28.820Z,19.80
2017-11-28T05:53:33.687Z,19.70
2017-11-28T05:54:38.627Z,19.80
2017-11-28T05:55:43.627Z,19.80
2017-11-28T05:56:48.464Z,19.80
2017-11-28T05:57:53.475Z,19.80
2017-11-28T05:58:58.249Z,19.80
2017-11-28T06:00:03.073Z,19.80
2017-11-28T06:01:07.862Z,19.80
2017-11-28T06:02:12.669Z,19.80
2017-11-28T06:03:17.651Z,19.80
2017-11-28T06:04:22.456Z,19.80
2017-11-28T06:05:27.291Z,19.80
2017-11-28T06:06:32.042Z,19.80
2017-11-28T06:07:37.000Z,19.80
2017-11-28T06:08:41.827Z,19.80
2017-11-28T06:09:46.595Z,19.80
2017-11-28T06:10:51.392Z,19.70
2017-11-28T06:11:56.287Z,19.70
2017-11-28T06:13:01.072Z,19.70
2017-11-28T06:14:05.922Z,19.70
2017-11-28T06:15:10.956Z,19.70
2017-11-28T06:16:15.751Z,19.70
2017-11-28T06:17:20.450Z,19.70
2017-11-28T06:18:25.258Z,19.70
2017-11-28T06:19:30.244Z,19.70
2017-11-28T06:20:35.298Z,19.70
2017-11-28T06:21:39.896Z,19.70
2017-11-28T06:22:44.623Z,19.70
2017-11-28T06:23:49.473Z,19.70
2017-11-28T06:24:54.588Z,19.70
2017-11-28T06:25:59.773Z,19.70
2017-11-28T06:27:04.643Z,19.70
2017-11-28T06:28:09.606Z,19.70
2017-11-28T06:29:14.245Z,19.70
2017-11-28T06:30:19.193Z,19.70
2017-11-28T06:31:24.162Z,19.80
2017-11-28T06:32:30.913Z,19.80
2017-11-28T06:33:36.538Z,19.80
2017-11-28T06:34:42.620Z,19.80
2017-11-28T06:35:47.566Z,19.80
2017-11-28T06:36:52.567Z,19.80
2017-11-28T06:37:57.406Z,19.80
2017-11-28T06:39:02.317Z,19.80
2017-11-28T06:40:07.304Z,19.80
2017-11-28T06:41:12.767Z,19.70
2017-11-28T06:42:17.519Z,19.50
2017-11-28T06:43:22.438Z,19.30
2017-11-28T06:44:27.182Z,19.20
2017-11-28T06:45:31.990Z,19.10
2017-11-28T06:46:36.689Z,19.00
2017-11-28T06:47:41.381Z,18.90
2017-11-28T06:48:45.978Z,18.80
2017-11-28T06:49:50.702Z,18.70
2017-11-28T06:50:55.900Z,18.70
2017-11-28T06:52:00.882Z,18.60
2017-11-28T06:53:06.005Z,18.60
2017-11-28T06:54:11.487Z,18.60
2017-11-28T06:55:16.626Z,18.60
2017-11-28T06:56:21.765Z,18.70
2017-11-28T06:57:26.569Z,18.70
2017-11-28T06:58:31.422Z,18.80
2017-11-28T06:59:36.107Z,18.90
2017-11-28T07:00:42.006Z,19.00
2017-11-28T07:01:46.991Z,19.00
2017-11-28T07:02:51.648Z,19.10
2017-11-28T07:03:56.725Z,19.20
2017-11-28T07:05:01.678Z,19.30
2017-11-28T07:06:06.635Z,19.30
2017-11-28T07:07:11.568Z,19.50
2017-11-28T07:08:19.892Z,19.50
2017-11-28T07:09:25.344Z,19.60
2017-11-28T07:10:30.208Z,19.70
2017-11-28T07:11:35.328Z,19.70
2017-11-28T07:12:40.281Z,19.80
2017-11-28T07:13:45.450Z,19.90
2017-11-28T07:14:50.638Z,20.00
2017-11-28T07:15:55.617Z,20.00
2017-11-28T07:17:00.703Z,20.00
2017-11-28T07:18:07.310Z,20.10
2017-11-28T07:19:12.977Z,20.10
2017-11-28T07:20:17.841Z,20.10
2017-11-28T07:21:22.939Z,20.10
2017-11-28T07:22:27.831Z,20.10
2017-11-28T07:23:32.738Z,20.10
2017-11-28T07:24:37.642Z,20.10
2017-11-28T07:25:42.660Z,20.10
2017-11-28T07:26:47.374Z,20.20
2017-11-28T07:27:52.131Z,20.20
2017-11-28T07:28:57.040Z,20.20
2017-11-28T07:30:02.015Z,20.20
2017-11-28T07:31:06.862Z,20.30
2017-11-28T07:32:11.825Z,20.20
2017-11-28T07:33:16.813Z,20.30
2017-11-28T07:34:21.748Z,20.30
2017-11-28T07:35:26.707Z,20.30
2017-11-28T07:36:32.193Z,20.30
2017-11-28T07:37:37.171Z,20.30
2017-11-28T07:38:42.014Z,20.30
2017-11-28T07:39:47.081Z,20.40
2017-11-28T07:40:52.197Z,20.40
2017-11-28T07:41:56.913Z,20.40
2017-11-28T07:43:02.086Z,20.40
2017-11-28T07:44:07.073Z,20.40
2017-11-28T07:45:11.812Z,20.40
2017-11-28T07:46:16.868Z,20.40
2017-11-28T07:47:21.850Z,20.40
2017-11-28T07:48:26.711Z,20.40
2017-11-28T07:49:31.443Z,20.40
2017-11-28T07:50:36.464Z,20.40
2017-11-28T07:51:41.477Z,20.40
2017-11-28T07:52:46.320Z,20.40
2017-11-28T07:53:51.222Z,20.30
2017-11-28T07:54:56.526Z,20.40
2017-11-28T07:56:01.310Z,20.30
2017-11-28T07:57:06.306Z,20.30
2017-11-28T07:58:10.979Z,20.30
2017-11-28T07:59:15.828Z,20.30
2017-11-28T08:00:20.655Z,20.30
2017-11-28T08:01:25.609Z,20.30
2017-11-28T08:02:31.129Z,20.30
2017-11-28T08:03:35.803Z,20.30
2017-11-28T08:04:40.656Z,20.20
2017-11-28T08:05:45.622Z,20.20
2017-11-28T08:06:50.597Z,20.20
2017-11-28T08:07:55.226Z,20.20
2017-11-28T08:08:59.823Z,20.20
2017-11-28T08:10:04.454Z,20.20
2017-11-28T08:11:09.428Z,20.20
2017-11-28T08:12:14.223Z,20.20
2017-11-28T08:13:19.616Z,20.20
2017-11-28T08:14:24.603Z,20.10
2017-11-28T08:15:29.284Z,20.20
2017-11-28T08:16:34.254Z,20.10
2017-11-28T08:17:39.102Z,20.10
2017-11-28T08:18:44.006Z,20.10
2017-11-28T08:19:49.159Z,20.10
2017-11-28T08:20:53.887Z,20.10
2017-11-28T08:21:58.614Z,20.20
2017-11-28T08:23:03.274Z,20.10
2017-11-28T08:24:08.091Z,20.10
2017-11-28T08:25:12.869Z,20.10
2017-11-28T08:26:18.592Z,20.10
2017-11-28T08:27:23.607Z,20.10
2017-11-28T08:28:28.558Z,20.10
2017-11-28T08:29:33.359Z,20.10
2017-11-28T08:30:38.154Z,20.10
2017-11-28T08:31:43.532Z,20.10
2017-11-28T08:32:48.321Z,20.10
2017-11-28T08:33:53.386Z,20.10
2017-11-28T08:34:58.179Z,20.10
2017-11-28T08:36:03.049Z,20.10
2017-11-28T08:37:07.827Z,20.10
2017-11-28T08:38:12.461Z,20.10
2017-11-28T08:39:17.319Z,20.10
2017-11-28T08:40:22.106Z,20.10
2017-11-28T08:41:26.981Z,20.10
2017-11-28T08:42:31.573Z,20.10
2017-11-28T08:43:37.174Z,20.10
2017-11-28T08:44:42.063Z,20.00
2017-11-28T08:45:46.838Z,20.00
2017-11-28T08:46:51.752Z,20.10
2017-11-28T08:47:56.375Z,20.10
2017-11-28T08:49:01.269Z,20.10
2017-11-28T08:50:06.545Z,20.10
2017-11-28T08:51:11.654Z,20.10
2017-11-28T08:52:16.320Z,20.10
2017-11-28T08:53:20.973Z,20.10
2017-11-28T08:54:25.707Z,20.10
2017-11-28T08:55:30.520Z,20.10
2017-11-28T08:56:35.236Z,20.10
2017-11-28T08:57:40.245Z,20.20
2017-11-28T08:58:44.968Z,20.10
2017-11-28T08:59:49.788Z,20.10
2017-11-28T09:00:54.488Z,20.10
2017-11-28T09:01:59.277Z,20.10
2017-11-28T09:03:04.178Z,20.00
2017-11-28T09:04:08.841Z,20.00
2017-11-28T09:05:13.617Z,20.00
2017-11-28T09:06:18.337Z,20.00
2017-11-28T09:07:22.989Z,20.00
2017-11-28T09:08:28.256Z,20.00
2017-11-28T09:09:33.295Z,20.00
2017-11-28T09:10:38.163Z,20.00
2017-11-28T09:11:43.369Z,20.00
2017-11-28T09:12:48.132Z,20.00
2017-11-28T09:13:52.872Z,20.00
2017-11-28T09:14:58.079Z,20.00
2017-11-28T09:16:03.126Z,20.00
2017-11-28T09:17:07.954Z,20.00
2017-11-28T09:18:12.758Z,20.00
2017-11-28T09:19:17.842Z,20.00
2017-11-28T09:20:22.528Z,20.00
2017-11-28T09:21:27.505Z,20.00
2017-11-28T09:22:32.326Z,20.00
2017-11-28T09:23:37.149Z,20.00
2017-11-28T09:24:41.975Z,20.00
2017-11-28T09:25:46.961Z,20.00
2017-11-28T09:26:51.809Z,20.00
2017-11-28T09:27:56.629Z,20.00
2017-11-28T09:29:01.781Z,20.00
2017-11-28T09:30:06.595Z,20.00
2017-11-28T09:31:11.735Z,20.00
2017-11-28T09:32:16.654Z,20.00
2017-11-28T09:33:21.343Z,20.10
2017-11-28T09:34:26.303Z,20.10
2017-11-28T09:35:31.831Z,20.10
2017-11-28T09:36:36.776Z,20.10
2017-11-28T09:37:41.500Z,20.10
2017-11-28T09:38:46.420Z,20.10
2017-11-28T09:39:51.416Z,20.10
2017-11-28T09:40:56.405Z,20.10
2017-11-28T09:42:01.165Z,20.00
2017-11-28T09:43:06.100Z,20.10
2017-11-28T09:44:10.866Z,20.10
2017-11-28T09:45:15.612Z,20.10
2017-11-28T09:46:20.600Z,20.10
2017-11-28T09:47:25.435Z,20.10
2017-11-28T09:48:30.200Z,20.10
2017-11-28T09:49:34.936Z,20.10
2017-11-28T09:50:39.801Z,20.10
2017-11-28T09:51:44.538Z,20.00
2017-11-28T09:52:49.254Z,20.00
2017-11-28T09:53:54.106Z,20.00
2017-11-28T09:54:58.832Z,20.00
2017-11-28T09:56:03.748Z,20.00
2017-11-28T09:57:09.102Z,20.00
2017-11-28T09:58:13.824Z,19.90
2017-11-28T09:59:18.615Z,20.00
2017-11-28T10:00:23.598Z,20.00
2017-11-28T10:01:28.184Z,19.90
2017-11-28T10:02:33.076Z,19.90
2017-11-28T10:03:37.748Z,19.90
2017-11-28T10:04:42.554Z,19.90
2017-11-28T10:05:47.438Z,19.90
2017-11-28T10:06:52.349Z,19.90
2017-11-28T10:07:57.129Z,19.90
2017-11-28T10:09:02.009Z,19.90
2017-11-28T10:10:06.597Z,19.90
2017-11-28T10:11:11.318Z,19.90
2017-11-28T10:12:16.349Z,19.90
2017-11-28T10:13:21.245Z,19.90
2017-11-28T10:14:26.077Z,19.90
2017-11-28T10:15:30.789Z,19.90
2017-11-28T10:16:35.645Z,19.90
2017-11-28T10:17:40.401Z,19.90
2017-11-28T10:18:45.275Z,19.90
2017-11-28T10:19:50.048Z,19.90
2017-11-28T10:20:54.643Z,19.90
2017-11-28T10:21:59.327Z,19.90
2017-11-28T10:23:04.127Z,19.90
2017-11-28T10:24:09.242Z,19.90
2017-11-28T10:25:14.149Z,19.90
2017-11-28T10:26:18.991Z,19.90
2017-11-28T10:27:23.614Z,19.90
2017-11-28T10:28:28.284Z,19.90
2017-11-28T10:29:32.919Z,19.90
2017-11-28T10:30:37.566Z,19.90
2017-11-28T10:31:42.339Z,19.80
2017-11-28T10:32:47.101Z,19.80
2017-11-28T10:33:51.878Z,19.80
2017-11-28T10:34:56.770Z,19.80
2017-11-28T10:36:01.598Z,19.80
2017-11-28T10:37:06.199Z,19.80
2017-11-28T10:38:11.727Z,19.80
2017-11-28T10:39:16.491Z,19.80
2017-11-28T10:40:21.600Z,19.80
2017-11-28T10:41:26.277Z,19.80
2017-11-28T10:42:30.988Z,19.80
2017-11-28T10:43:35.840Z,19.80
2017-11-28T10:44:40.814Z,19.80
2017-11-28T10:45:45.756Z,19.80
2017-11-28T10:46:50.742Z,19.80
2017-11-28T10:47:55.635Z,19.80
2017-11-28T10:49:00.351Z,19.80
2017-11-28T10:50:05.265Z,19.90
2017-11-28T10:51:10.149Z,19.80
2017-11-28T10:52:14.804Z,19.80
2017-11-28T10:53:19.590Z,19.80
2017-11-28T10:54:24.534Z,19.90
2017-11-28T10:55:29.424Z,19.90
2017-11-28T10:56:34.430Z,19.80
2017-11-28T10:57:39.416Z,19.80
2017-11-28T10:58:44.402Z,19.80
2017-11-28T10:59:49.392Z,19.80
2017-11-28T11:00:54.169Z,19.90
2017-11-28T11:01:58.972Z,19.80
2017-11-28T11:03:03.794Z,19.80
2017-11-28T11:04:08.694Z,19.80
2017-11-28T11:05:13.432Z,19.80
2017-11-28T11:06:18.247Z,19.80
2017-11-28T11:07:22.859Z,19.80
2017-11-28T11:08:27.755Z,19.90
2017-11-28T11:09:32.736Z,19.80
2017-11-28T11:10:37.559Z,19.80
2017-11-28T11:11:42.432Z,19.90
2017-11-28T11:12:47.346Z,19.90
2017-11-28T11:13:52.219Z,19.90
2017-11-28T11:14:57.154Z,19.80
2017-11-28T11:16:02.066Z,19.80
2017-11-28T11:17:06.693Z,19.80
2017-11-28T11:18:11.618Z,19.80
2017-11-28T11:19:16.391Z,19.80
2017-11-28T11:20:21.268Z,19.80
2017-11-28T11:21:26.188Z,19.90
2017-11-28T11:22:31.068Z,19.80
2017-11-28T11:23:35.815Z,19.80
2017-11-28T11:24:40.555Z,19.80
2017-11-28T11:25:45.513Z,19.80
2017-11-28T11:26:50.339Z,19.80
2017-11-28T11:27:54.986Z,19.80
2017-11-28T11:28:59.918Z,19.80
2017-11-28T11:30:05.085Z,19.80
2017-11-28T11:31:10.002Z,19.80
2017-11-28T11:32:14.929Z,19.80
2017-11-28T11:33:19.809Z,19.80
2017-11-28T11:34:24.660Z,19.80
2017-11-28T11:35:29.670Z,19.80
2017-11-28T11:36:34.450Z,19.80
2017-11-28T11:37:39.354Z,19.80
2017-11-28T11:38:44.359Z,19.80
2017-11-28T11:39:49.032Z,19.80
2017-11-28T11:40:54.017Z,19.80
2017-11-28T11:41:58.872Z,19.80
2017-11-28T11:43:03.634Z,19.80
2017-11-28T11:44:08.400Z,19.80
2017-11-28T11:45:13.251Z,19.80
2017-11-28T11:46:18.114Z,19.80
2017-11-28T11:47:22.758Z,19.80
2017-11-28T11:48:27.501Z,19.80
2017-11-28T11:49:32.313Z,19.80
2017-11-28T11:50:37.179Z,19.80
2017-11-28T11:51:42.109Z,19.80
2017-11-28T11:52:47.009Z,19.80
2017-11-28T11:53:51.939Z,19.80
2017-11-28T11:54:56.721Z,19.80
2017-11-28T11:56:02.239Z,19.80
2017-11-28T11:57:07.436Z,19.80
2017-11-28T11:58:12.513Z,19.80
2017-11-28T11:59:17.260Z,19.80
2017-11-28T12:00:21.999Z,19.80
2017-11-28T12:01:26.747Z,19.80
2017-11-28T12:02:31.419Z,19.80
2017-11-28T12:03:36.252Z,19.80
2017-11-28T12:04:41.220Z,19.80
2017-11-28T12:05:45.902Z,19.80
2017-11-28T12:06:50.732Z,19.80
2017-11-28T12:07:55.537Z,19.70
2017-11-28T12:09:00.420Z,19.80
2017-11-28T12:10:05.136Z,19.70
2017-11-28T12:11:09.927Z,19.70
2017-11-28T12:12:14.775Z,19.70
2017-11-28T12:13:19.781Z,19.80
2017-11-28T12:14:24.984Z,19.80
2017-11-28T12:15:30.286Z,19.80
2017-11-28T12:16:35.108Z,19.70
2017-11-28T12:17:40.058Z,19.80
2017-11-28T12:18:44.879Z,19.80
2017-11-28T12:19:49.612Z,19.70
2017-11-28T12:20:54.241Z,19.80
2017-11-28T12:21:59.060Z,19.70
2017-11-28T12:23:03.911Z,19.70
2017-11-28T12:24:08.584Z,19.80
2017-11-28T12:25:13.388Z,19.70
2017-11-28T12:26:18.228Z,19.70
2017-11-28T12:27:23.060Z,19.70
2017-11-28T12:28:27.713Z,19.70
2017-11-28T12:29:32.653Z,19.80
2017-11-28T12:30:37.524Z,19.70
2017-11-28T12:31:42.341Z,19.80
2017-11-28T12:32:46.993Z,19.70
2017-11-28T12:33:51.922Z,19.70
2017-11-28T12:34:56.720Z,19.80
2017-11-28T12:36:01.711Z,19.70
2017-11-28T12:37:06.501Z,19.70
2017-11-28T12:38:11.251Z,19.70
2017-11-28T12:39:16.011Z,19.70
2017-11-28T12:40:20.811Z,19.70
2017-11-28T12:41:25.598Z,19.70
2017-11-28T12:42:30.279Z,19.70
2017-11-28T12:43:35.092Z,19.70
2017-11-28T12:44:40.056Z,19.70
2017-11-28T12:45:45.023Z,19.70
2017-11-28T12:46:49.663Z,19.70
2017-11-28T12:47:54.443Z,19.70
2017-11-28T12:48:59.229Z,19.70
2017-11-28T12:50:04.081Z,19.70
2017-11-28T12:51:08.881Z,19.70
2017-11-28T12:52:13.852Z,19.70
2017-11-28T12:53:18.808Z,19.70
2017-11-28T12:54:23.653Z,19.80
2017-11-28T12:55:28.501Z,19.70
2017-11-28T12:56:33.350Z,19.80
2017-11-28T12:57:38.329Z,19.80
2017-11-28T12:58:43.211Z,19.80
2017-11-28T12:59:47.915Z,19.80
2017-11-28T13:00:52.679Z,19.80
2017-11-28T13:01:57.340Z,19.90
2017-11-28T13:03:02.327Z,19.90
2017-11-28T13:04:07.138Z,19.80
2017-11-28T13:05:11.922Z,19.90
2017-11-28T13:06:16.685Z,19.90
2017-11-28T13:07:21.771Z,19.80
2017-11-28T13:08:26.689Z,19.80
2017-11-28T13:09:31.710Z,19.80
2017-11-28T13:10:36.612Z,19.80
2017-11-28T13:11:41.565Z,19.80
2017-11-28T13:12:46.619Z,19.80
2017-11-28T13:13:51.464Z,19.80
2017-11-28T13:14:56.659Z,19.80
2017-11-28T13:16:01.544Z,19.80
2017-11-28T13:17:06.306Z,19.90
2017-11-28T13:18:11.086Z,19.80
2017-11-28T13:19:15.803Z,19.80
2017-11-28T13:20:20.548Z,19.80
2017-11-28T13:21:25.300Z,19.80
2017-11-28T13:22:30.170Z,19.80
2017-11-28T13:23:35.132Z,19.80
2017-11-28T13:24:40.221Z,19.80
2017-11-28T13:25:45.142Z,19.80
2017-11-28T13:26:50.113Z,19.80
2017-11-28T13:27:54.959Z,19.80
2017-11-28T13:28:59.806Z,19.80
2017-11-28T13:30:04.765Z,19.80
2017-11-28T13:31:09.703Z,19.80
2017-11-28T13:32:14.631Z,19.80
2017-11-28T13:33:19.404Z,19.80
2017-11-28T13:34:24.912Z,19.80
2017-11-28T13:35:29.991Z,19.80
2017-11-28T13:36:35.397Z,19.80
2017-11-28T13:37:40.268Z,19.80
2017-11-28T13:38:45.202Z,19.80
2017-11-28T13:39:50.079Z,19.80
2017-11-28T13:40:55.507Z,19.80
2017-11-28T13:42:00.421Z,19.80
2017-11-28T13:43:05.289Z,19.80
2017-11-28T13:44:10.278Z,19.80
2017-11-28T13:45:15.253Z,19.80
2017-11-28T13:46:20.006Z,19.80
2017-11-28T13:47:24.949Z,19.80
2017-11-28T13:48:29.940Z,19.80
2017-11-28T13:49:34.935Z,19.80
2017-11-28T13:50:39.672Z,19.80
2017-11-28T13:51:44.590Z,19.80
2017-11-28T13:52:49.378Z,19.80
2017-11-28T13:53:54.167Z,19.80
2017-11-28T13:54:58.881Z,19.80